sensor_id;sensor_type;location;lat;lon;timestamp;temperature;humidity
8945;DHT22;4507;40.232;29.132;2023-06-22T00:01:31;19.60;96.60
8945;DHT22;4507;40.232;29.132;2023-06-22T00:04:00;19.60;96.70
8945;DHT22;4507;40.232;29.132;2023-06-22T00:06:30;19.60;96.80
8945;DHT22;4507;40.232;29.132;2023-06-22T00:09:17;19.60;96.90
8945;DHT22;4507;40.232;29.132;2023-06-22T00:11:47;19.60;97.00
8945;DHT22;4507;40.232;29.132;2023-06-22T00:14:20;19.50;97.00
8945;DHT22;4507;40.232;29.132;2023-06-22T00:16:49;19.50;97.20
8945;DHT22;4507;40.232;29.132;2023-06-22T00:19:22;19.50;97.20
8945;DHT22;4507;40.232;29.132;2023-06-22T00:21:51;19.50;97.30
8945;DHT22;4507;40.232;29.132;2023-06-22T00:24:21;19.50;97.30
8945;DHT22;4507;40.232;29.132;2023-06-22T00:26:51;19.50;97.40
8945;DHT22;4507;40.232;29.132;2023-06-22T00:29:21;19.50;97.40
8945;DHT22;4507;40.232;29.132;2023-06-22T00:31:52;19.50;97.50
8945;DHT22;4507;40.232;29.132;2023-06-22T00:34:22;19.50;97.50
8945;DHT22;4507;40.232;29.132;2023-06-22T00:36:52;19.50;97.60
8945;DHT22;4507;40.232;29.132;2023-06-22T00:39:21;19.40;97.50
8945;DHT22;4507;40.232;29.132;2023-06-22T00:41:52;19.40;97.60
8945;DHT22;4507;40.232;29.132;2023-06-22T00:44:24;19.40;97.70
8945;DHT22;4507;40.232;29.132;2023-06-22T00:46:55;19.40;97.80
8945;DHT22;4507;40.232;29.132;2023-06-22T00:49:27;19.40;97.80
8945;DHT22;4507;40.232;29.132;2023-06-22T00:51:57;19.40;97.80
8945;DHT22;4507;40.232;29.132;2023-06-22T00:54:27;19.40;97.70
8945;DHT22;4507;40.232;29.132;2023-06-22T00:56:57;19.40;97.60
8945;DHT22;4507;40.232;29.132;2023-06-22T00:59:30;19.40;97.60
8945;DHT22;4507;40.232;29.132;2023-06-22T01:02:00;19.40;97.70
8945;DHT22;4507;40.232;29.132;2023-06-22T01:04:35;19.40;97.60
8945;DHT22;4507;40.232;29.132;2023-06-22T01:07:13;19.40;97.40
8945;DHT22;4507;40.232;29.132;2023-06-22T01:09:51;19.40;97.40
8945;DHT22;4507;40.232;29.132;2023-06-22T01:12:22;19.40;97.40
8945;DHT22;4507;40.232;29.132;2023-06-22T01:14:58;19.40;97.40
8945;DHT22;4507;40.232;29.132;2023-06-22T01:17:29;19.30;97.40
8945;DHT22;4507;40.232;29.132;2023-06-22T01:20:00;19.40;97.50
8945;DHT22;4507;40.232;29.132;2023-06-22T01:22:54;19.40;97.50
8945;DHT22;4507;40.232;29.132;2023-06-22T01:25:31;19.40;97.50
8945;DHT22;4507;40.232;29.132;2023-06-22T01:28:10;19.30;97.50
8945;DHT22;4507;40.232;29.132;2023-06-22T01:30:46;19.30;97.50
8945;DHT22;4507;40.232;29.132;2023-06-22T01:33:17;19.30;97.50
8945;DHT22;4507;40.232;29.132;2023-06-22T01:35:46;19.30;97.50
8945;DHT22;4507;40.232;29.132;2023-06-22T01:38:16;19.30;97.50
8945;DHT22;4507;40.232;29.132;2023-06-22T01:40:46;19.30;97.40
8945;DHT22;4507;40.232;29.132;2023-06-22T01:43:16;19.20;97.30
8945;DHT22;4507;40.232;29.132;2023-06-22T01:45:47;19.20;97.30
8945;DHT22;4507;40.232;29.132;2023-06-22T01:48:35;19.20;97.30
8945;DHT22;4507;40.232;29.132;2023-06-22T01:51:04;19.20;97.30
8945;DHT22;4507;40.232;29.132;2023-06-22T01:53:33;19.20;97.40
8945;DHT22;4507;40.232;29.132;2023-06-22T01:56:02;19.20;97.50
8945;DHT22;4507;40.232;29.132;2023-06-22T01:58:31;19.10;97.50
8945;DHT22;4507;40.232;29.132;2023-06-22T02:01:09;19.10;97.60
8945;DHT22;4507;40.232;29.132;2023-06-22T02:03:41;19.10;97.70
8945;DHT22;4507;40.232;29.132;2023-06-22T02:06:16;19.10;97.80
8945;DHT22;4507;40.232;29.132;2023-06-22T02:08:48;19.10;97.90
8945;DHT22;4507;40.232;29.132;2023-06-22T02:11:20;19.10;98.10
8945;DHT22;4507;40.232;29.132;2023-06-22T02:13:50;19.10;98.20
8945;DHT22;4507;40.232;29.132;2023-06-22T02:16:40;19.10;98.30
8945;DHT22;4507;40.232;29.132;2023-06-22T02:19:10;19.00;98.40
8945;DHT22;4507;40.232;29.132;2023-06-22T02:21:39;19.10;98.60
8945;DHT22;4507;40.232;29.132;2023-06-22T02:24:08;19.10;98.70
8945;DHT22;4507;40.232;29.132;2023-06-22T02:26:38;19.00;98.70
8945;DHT22;4507;40.232;29.132;2023-06-22T02:29:09;19.00;98.80
8945;DHT22;4507;40.232;29.132;2023-06-22T02:31:40;19.00;98.80
8945;DHT22;4507;40.232;29.132;2023-06-22T02:34:09;19.00;98.80
8945;DHT22;4507;40.232;29.132;2023-06-22T02:36:38;19.00;98.90
8945;DHT22;4507;40.232;29.132;2023-06-22T02:39:07;19.00;98.90
8945;DHT22;4507;40.232;29.132;2023-06-22T02:41:37;19.00;99.00
8945;DHT22;4507;40.232;29.132;2023-06-22T02:44:06;19.00;99.10
8945;DHT22;4507;40.232;29.132;2023-06-22T02:46:36;18.90;99.10
8945;DHT22;4507;40.232;29.132;2023-06-22T02:49:11;18.90;99.10
8945;DHT22;4507;40.232;29.132;2023-06-22T02:51:44;18.90;99.30
8945;DHT22;4507;40.232;29.132;2023-06-22T02:54:15;18.80;99.40
8945;DHT22;4507;40.232;29.132;2023-06-22T02:56:46;18.80;99.50
8945;DHT22;4507;40.232;29.132;2023-06-22T02:59:16;18.80;99.60
8945;DHT22;4507;40.232;29.132;2023-06-22T03:01:49;18.80;99.80
8945;DHT22;4507;40.232;29.132;2023-06-22T03:04:23;18.80;99.90
8945;DHT22;4507;40.232;29.132;2023-06-22T03:06:54;18.80;99.90
8945;DHT22;4507;40.232;29.132;2023-06-22T03:09:23;18.80;99.90
8945;DHT22;4507;40.232;29.132;2023-06-22T03:11:52;18.80;99.90
8945;DHT22;4507;40.232;29.132;2023-06-22T03:14:22;18.80;99.90
8945;DHT22;4507;40.232;29.132;2023-06-22T03:17:10;18.80;99.90
8945;DHT22;4507;40.232;29.132;2023-06-22T03:19:41;18.70;99.90
8945;DHT22;4507;40.232;29.132;2023-06-22T03:22:10;18.60;99.90
8945;DHT22;4507;40.232;29.132;2023-06-22T03:24:40;18.60;99.90
8945;DHT22;4507;40.232;29.132;2023-06-22T03:27:29;18.50;99.90
8945;DHT22;4507;40.232;29.132;2023-06-22T03:29:59;18.50;99.90
8945;DHT22;4507;40.232;29.132;2023-06-22T03:32:28;18.50;99.90
8945;DHT22;4507;40.232;29.132;2023-06-22T03:35:00;18.50;99.90
8945;DHT22;4507;40.232;29.132;2023-06-22T03:37:29;18.60;99.90
8945;DHT22;4507;40.232;29.132;2023-06-22T03:39:58;18.60;99.90
8945;DHT22;4507;40.232;29.132;2023-06-22T03:42:29;18.70;99.90
8945;DHT22;4507;40.232;29.132;2023-06-22T03:44:58;18.70;99.90
8945;DHT22;4507;40.232;29.132;2023-06-22T03:47:28;18.80;99.90
8945;DHT22;4507;40.232;29.132;2023-06-22T03:50:00;18.80;99.90
8945;DHT22;4507;40.232;29.132;2023-06-22T03:52:31;18.90;99.90
8945;DHT22;4507;40.232;29.132;2023-06-22T03:55:00;18.90;99.90
8945;DHT22;4507;40.232;29.132;2023-06-22T03:57:29;19.00;99.90
8945;DHT22;4507;40.232;29.132;2023-06-22T03:59:58;19.00;99.90
8945;DHT22;4507;40.232;29.132;2023-06-22T04:02:27;19.00;99.90
8945;DHT22;4507;40.232;29.132;2023-06-22T04:04:56;19.10;99.90
8945;DHT22;4507;40.232;29.132;2023-06-22T04:07:30;19.10;99.90
8945;DHT22;4507;40.232;29.132;2023-06-22T04:09:59;19.20;99.90
8945;DHT22;4507;40.232;29.132;2023-06-22T04:12:28;19.20;99.90
8945;DHT22;4507;40.232;29.132;2023-06-22T04:14:57;19.30;99.90
8945;DHT22;4507;40.232;29.132;2023-06-22T04:17:25;19.30;99.90
8945;DHT22;4507;40.232;29.132;2023-06-22T04:19:55;19.40;99.90
8945;DHT22;4507;40.232;29.132;2023-06-22T04:22:23;19.40;99.90
8945;DHT22;4507;40.232;29.132;2023-06-22T04:24:54;19.40;99.90
8945;DHT22;4507;40.232;29.132;2023-06-22T04:27:23;19.50;99.90
8945;DHT22;4507;40.232;29.132;2023-06-22T04:29:52;19.50;99.90
8945;DHT22;4507;40.232;29.132;2023-06-22T04:32:21;19.60;99.90
8945;DHT22;4507;40.232;29.132;2023-06-22T04:34:50;19.60;99.90
8945;DHT22;4507;40.232;29.132;2023-06-22T04:37:19;19.60;99.90
8945;DHT22;4507;40.232;29.132;2023-06-22T04:39:56;19.70;99.90
8945;DHT22;4507;40.232;29.132;2023-06-22T04:42:26;19.80;99.90
8945;DHT22;4507;40.232;29.132;2023-06-22T04:44:55;19.80;99.90
8945;DHT22;4507;40.232;29.132;2023-06-22T04:47:28;19.90;99.90
8945;DHT22;4507;40.232;29.132;2023-06-22T04:49:57;19.90;99.90
8945;DHT22;4507;40.232;29.132;2023-06-22T04:52:26;20.00;99.90
8945;DHT22;4507;40.232;29.132;2023-06-22T04:54:56;20.00;99.90
8945;DHT22;4507;40.232;29.132;2023-06-22T04:57:27;20.10;99.90
8945;DHT22;4507;40.232;29.132;2023-06-22T05:00:00;20.10;99.90
8945;DHT22;4507;40.232;29.132;2023-06-22T05:02:39;20.20;99.90
8945;DHT22;4507;40.232;29.132;2023-06-22T05:05:09;20.30;99.90
8945;DHT22;4507;40.232;29.132;2023-06-22T05:07:45;20.30;99.90
8945;DHT22;4507;40.232;29.132;2023-06-22T05:10:17;20.40;99.90
8945;DHT22;4507;40.232;29.132;2023-06-22T05:12:46;20.40;99.90
8945;DHT22;4507;40.232;29.132;2023-06-22T05:15:15;20.50;99.90
8945;DHT22;4507;40.232;29.132;2023-06-22T05:17:46;20.60;99.90
8945;DHT22;4507;40.232;29.132;2023-06-22T05:20:16;20.60;99.90
8945;DHT22;4507;40.232;29.132;2023-06-22T05:22:45;20.70;99.90
8945;DHT22;4507;40.232;29.132;2023-06-22T05:25:14;20.80;99.90
8945;DHT22;4507;40.232;29.132;2023-06-22T05:27:45;20.90;99.90
8945;DHT22;4507;40.232;29.132;2023-06-22T05:30:14;20.90;99.90
8945;DHT22;4507;40.232;29.132;2023-06-22T05:32:46;21.00;99.90
8945;DHT22;4507;40.232;29.132;2023-06-22T05:35:18;21.10;99.90
8945;DHT22;4507;40.232;29.132;2023-06-22T05:37:47;21.10;99.90
8945;DHT22;4507;40.232;29.132;2023-06-22T05:40:16;21.20;99.90
8945;DHT22;4507;40.232;29.132;2023-06-22T05:42:46;21.30;99.90
8945;DHT22;4507;40.232;29.132;2023-06-22T05:45:15;21.30;99.60
8945;DHT22;4507;40.232;29.132;2023-06-22T05:47:44;21.40;99.50
8945;DHT22;4507;40.232;29.132;2023-06-22T05:50:13;21.40;99.10
8945;DHT22;4507;40.232;29.132;2023-06-22T05:52:42;21.60;98.40
8945;DHT22;4507;40.232;29.132;2023-06-22T05:55:11;21.60;98.30
8945;DHT22;4507;40.232;29.132;2023-06-22T05:57:40;21.70;98.10
8945;DHT22;4507;40.232;29.132;2023-06-22T06:00:12;21.80;97.90
8945;DHT22;4507;40.232;29.132;2023-06-22T06:02:42;21.90;97.80
8945;DHT22;4507;40.232;29.132;2023-06-22T06:05:11;22.00;97.80
8945;DHT22;4507;40.232;29.132;2023-06-22T06:07:42;22.00;97.30
8945;DHT22;4507;40.232;29.132;2023-06-22T06:10:11;22.20;97.20
8945;DHT22;4507;40.232;29.132;2023-06-22T06:12:40;22.20;96.90
8945;DHT22;4507;40.232;29.132;2023-06-22T06:15:11;22.30;96.20
8945;DHT22;4507;40.232;29.132;2023-06-22T06:17:58;22.40;95.80
8945;DHT22;4507;40.232;29.132;2023-06-22T06:20:27;22.50;95.60
8945;DHT22;4507;40.232;29.132;2023-06-22T06:22:57;22.60;95.30
8945;DHT22;4507;40.232;29.132;2023-06-22T06:25:26;22.70;94.90
8945;DHT22;4507;40.232;29.132;2023-06-22T06:27:55;22.80;94.70
8945;DHT22;4507;40.232;29.132;2023-06-22T06:30:26;22.90;94.40
8945;DHT22;4507;40.232;29.132;2023-06-22T06:32:55;23.00;94.20
8945;DHT22;4507;40.232;29.132;2023-06-22T06:35:24;23.10;93.90
8945;DHT22;4507;40.232;29.132;2023-06-22T06:37:53;23.20;93.70
8945;DHT22;4507;40.232;29.132;2023-06-22T06:40:22;23.30;93.70
8945;DHT22;4507;40.232;29.132;2023-06-22T06:42:51;23.40;93.50
8945;DHT22;4507;40.232;29.132;2023-06-22T06:45:23;23.50;93.20
8945;DHT22;4507;40.232;29.132;2023-06-22T06:47:54;23.60;93.00
8945;DHT22;4507;40.232;29.132;2023-06-22T06:50:23;23.60;92.70
8945;DHT22;4507;40.232;29.132;2023-06-22T06:52:52;23.70;92.90
8945;DHT22;4507;40.232;29.132;2023-06-22T06:55:22;23.80;92.90
8945;DHT22;4507;40.232;29.132;2023-06-22T06:57:52;23.90;93.00
8945;DHT22;4507;40.232;29.132;2023-06-22T07:00:21;24.00;93.00
8945;DHT22;4507;40.232;29.132;2023-06-22T07:02:54;24.10;93.10
8945;DHT22;4507;40.232;29.132;2023-06-22T07:05:32;24.20;93.00
8945;DHT22;4507;40.232;29.132;2023-06-22T07:08:01;24.30;92.60
8945;DHT22;4507;40.232;29.132;2023-06-22T07:10:30;24.40;92.10
8945;DHT22;4507;40.232;29.132;2023-06-22T07:12:59;24.50;91.90
8945;DHT22;4507;40.232;29.132;2023-06-22T07:15:30;24.50;91.60
8945;DHT22;4507;40.232;29.132;2023-06-22T07:18:00;24.60;91.50
8945;DHT22;4507;40.232;29.132;2023-06-22T07:20:29;24.70;91.80
8945;DHT22;4507;40.232;29.132;2023-06-22T07:22:59;24.70;91.80
8945;DHT22;4507;40.232;29.132;2023-06-22T07:25:28;24.80;91.50
8945;DHT22;4507;40.232;29.132;2023-06-22T07:27:59;24.90;90.90
8945;DHT22;4507;40.232;29.132;2023-06-22T07:30:31;25.00;90.90
8945;DHT22;4507;40.232;29.132;2023-06-22T07:33:07;25.10;90.70
8945;DHT22;4507;40.232;29.132;2023-06-22T07:35:36;25.10;90.60
8945;DHT22;4507;40.232;29.132;2023-06-22T07:38:05;25.20;90.50
8945;DHT22;4507;40.232;29.132;2023-06-22T07:40:34;25.30;90.30
8945;DHT22;4507;40.232;29.132;2023-06-22T07:43:03;25.40;90.20
8945;DHT22;4507;40.232;29.132;2023-06-22T07:45:32;25.50;90.20
8945;DHT22;4507;40.232;29.132;2023-06-22T07:48:02;25.60;90.20
8945;DHT22;4507;40.232;29.132;2023-06-22T07:50:33;25.70;89.80
8945;DHT22;4507;40.232;29.132;2023-06-22T07:53:04;25.80;89.10
8945;DHT22;4507;40.232;29.132;2023-06-22T07:55:33;25.90;88.90
8945;DHT22;4507;40.232;29.132;2023-06-22T07:58:05;26.00;88.60
8945;DHT22;4507;40.232;29.132;2023-06-22T08:00:37;26.00;86.50
8945;DHT22;4507;40.232;29.132;2023-06-22T08:03:09;26.10;85.80
8945;DHT22;4507;40.232;29.132;2023-06-22T08:05:40;26.20;85.70
8945;DHT22;4507;40.232;29.132;2023-06-22T08:08:09;26.40;85.30
8945;DHT22;4507;40.232;29.132;2023-06-22T08:10:38;26.40;84.20
8945;DHT22;4507;40.232;29.132;2023-06-22T08:13:10;26.60;83.80
8945;DHT22;4507;40.232;29.132;2023-06-22T08:15:42;26.70;83.00
8945;DHT22;4507;40.232;29.132;2023-06-22T08:18:12;26.70;82.10
8945;DHT22;4507;40.232;29.132;2023-06-22T08:20:43;26.80;82.10
8945;DHT22;4507;40.232;29.132;2023-06-22T08:23:12;26.90;81.70
8945;DHT22;4507;40.232;29.132;2023-06-22T08:25:41;27.00;80.80
8945;DHT22;4507;40.232;29.132;2023-06-22T08:28:13;27.10;79.50
8945;DHT22;4507;40.232;29.132;2023-06-22T08:30:42;27.20;78.50
8945;DHT22;4507;40.232;29.132;2023-06-22T08:33:11;27.30;78.10
8945;DHT22;4507;40.232;29.132;2023-06-22T08:35:50;27.40;77.10
8945;DHT22;4507;40.232;29.132;2023-06-22T08:38:20;27.50;76.20
8945;DHT22;4507;40.232;29.132;2023-06-22T08:40:54;27.60;74.10
8945;DHT22;4507;40.232;29.132;2023-06-22T08:43:26;27.80;73.60
8945;DHT22;4507;40.232;29.132;2023-06-22T08:46:08;27.90;73.60
8945;DHT22;4507;40.232;29.132;2023-06-22T08:48:38;28.00;73.20
8945;DHT22;4507;40.232;29.132;2023-06-22T08:51:09;28.10;70.00
8945;DHT22;4507;40.232;29.132;2023-06-22T08:53:38;28.20;69.70
8945;DHT22;4507;40.232;29.132;2023-06-22T08:56:07;28.30;68.60
8945;DHT22;4507;40.232;29.132;2023-06-22T08:58:36;28.40;67.90
8945;DHT22;4507;40.232;29.132;2023-06-22T09:01:05;28.50;67.50
8945;DHT22;4507;40.232;29.132;2023-06-22T09:03:35;28.60;65.90
8945;DHT22;4507;40.232;29.132;2023-06-22T09:06:09;28.70;65.00
8945;DHT22;4507;40.232;29.132;2023-06-22T09:08:41;28.80;64.00
8945;DHT22;4507;40.232;29.132;2023-06-22T09:11:12;28.90;62.00
8945;DHT22;4507;40.232;29.132;2023-06-22T09:13:41;29.00;60.50
8945;DHT22;4507;40.232;29.132;2023-06-22T09:16:14;29.10;62.40
8945;DHT22;4507;40.232;29.132;2023-06-22T09:18:47;29.20;61.90
8945;DHT22;4507;40.232;29.132;2023-06-22T09:21:19;29.30;60.20
8945;DHT22;4507;40.232;29.132;2023-06-22T09:23:49;29.40;59.80
8945;DHT22;4507;40.232;29.132;2023-06-22T09:26:20;29.50;58.20
8945;DHT22;4507;40.232;29.132;2023-06-22T09:28:51;29.50;57.20
8945;DHT22;4507;40.232;29.132;2023-06-22T09:31:20;29.60;56.30
8945;DHT22;4507;40.232;29.132;2023-06-22T09:33:53;29.70;55.60
8945;DHT22;4507;40.232;29.132;2023-06-22T09:36:24;29.70;55.60
8945;DHT22;4507;40.232;29.132;2023-06-22T09:38:53;29.80;56.10
8945;DHT22;4507;40.232;29.132;2023-06-22T09:41:26;29.90;55.90
8945;DHT22;4507;40.232;29.132;2023-06-22T09:43:55;30.00;56.50
8945;DHT22;4507;40.232;29.132;2023-06-22T09:46:24;30.10;55.60
8945;DHT22;4507;40.232;29.132;2023-06-22T09:48:54;30.10;54.60
8945;DHT22;4507;40.232;29.132;2023-06-22T09:51:25;30.20;54.90
8945;DHT22;4507;40.232;29.132;2023-06-22T09:53:55;30.30;53.60
8945;DHT22;4507;40.232;29.132;2023-06-22T09:56:27;30.40;52.40
8945;DHT22;4507;40.232;29.132;2023-06-22T09:58:58;30.50;52.00
8945;DHT22;4507;40.232;29.132;2023-06-22T10:01:44;30.50;51.50
8945;DHT22;4507;40.232;29.132;2023-06-22T10:04:13;30.60;51.70
8945;DHT22;4507;40.232;29.132;2023-06-22T10:06:44;30.70;50.80
8945;DHT22;4507;40.232;29.132;2023-06-22T10:09:15;30.70;49.80
8945;DHT22;4507;40.232;29.132;2023-06-22T10:11:47;30.80;49.40
8945;DHT22;4507;40.232;29.132;2023-06-22T10:14:21;30.80;48.90
8945;DHT22;4507;40.232;29.132;2023-06-22T10:16:53;30.90;49.30
8945;DHT22;4507;40.232;29.132;2023-06-22T10:19:25;30.90;49.50
8945;DHT22;4507;40.232;29.132;2023-06-22T10:21:56;31.00;49.30
8945;DHT22;4507;40.232;29.132;2023-06-22T10:24:25;31.00;49.10
8945;DHT22;4507;40.232;29.132;2023-06-22T10:27:09;31.10;48.90
8945;DHT22;4507;40.232;29.132;2023-06-22T10:29:44;31.10;48.30
8945;DHT22;4507;40.232;29.132;2023-06-22T10:32:14;31.20;48.50
8945;DHT22;4507;40.232;29.132;2023-06-22T10:34:44;31.30;48.70
8945;DHT22;4507;40.232;29.132;2023-06-22T10:37:14;31.30;47.60
8945;DHT22;4507;40.232;29.132;2023-06-22T10:39:43;31.30;47.80
8945;DHT22;4507;40.232;29.132;2023-06-22T10:42:14;31.30;48.40
8945;DHT22;4507;40.232;29.132;2023-06-22T10:44:43;31.40;48.70
8945;DHT22;4507;40.232;29.132;2023-06-22T10:47:12;31.50;48.10
8945;DHT22;4507;40.232;29.132;2023-06-22T10:49:42;31.50;48.70
8945;DHT22;4507;40.232;29.132;2023-06-22T10:52:11;31.60;47.30
8945;DHT22;4507;40.232;29.132;2023-06-22T10:54:45;31.60;47.50
8945;DHT22;4507;40.232;29.132;2023-06-22T10:57:14;31.70;48.30
8945;DHT22;4507;40.232;29.132;2023-06-22T10:59:45;31.70;47.50
8945;DHT22;4507;40.232;29.132;2023-06-22T11:02:17;31.70;46.90
8945;DHT22;4507;40.232;29.132;2023-06-22T11:04:48;31.70;46.30
8945;DHT22;4507;40.232;29.132;2023-06-22T11:07:22;31.70;46.40
8945;DHT22;4507;40.232;29.132;2023-06-22T11:09:58;31.70;46.00
8945;DHT22;4507;40.232;29.132;2023-06-22T11:12:33;31.70;46.00
8945;DHT22;4507;40.232;29.132;2023-06-22T11:15:07;31.70;45.80
8945;DHT22;4507;40.232;29.132;2023-06-22T11:17:59;31.70;46.70
8945;DHT22;4507;40.232;29.132;2023-06-22T11:20:29;31.70;47.00
8945;DHT22;4507;40.232;29.132;2023-06-22T11:23:12;31.80;46.70
8945;DHT22;4507;40.232;29.132;2023-06-22T11:25:43;31.80;45.60
8945;DHT22;4507;40.232;29.132;2023-06-22T11:28:18;31.90;45.50
8945;DHT22;4507;40.232;29.132;2023-06-22T11:30:56;31.80;45.40
8945;DHT22;4507;40.232;29.132;2023-06-22T11:33:52;31.90;45.00
8945;DHT22;4507;40.232;29.132;2023-06-22T11:36:21;31.90;46.00
8945;DHT22;4507;40.232;29.132;2023-06-22T11:38:51;31.90;46.00
8945;DHT22;4507;40.232;29.132;2023-06-22T11:41:21;31.90;45.60
8945;DHT22;4507;40.232;29.132;2023-06-22T11:43:52;31.90;45.20
8945;DHT22;4507;40.232;29.132;2023-06-22T11:46:23;31.90;45.40
8945;DHT22;4507;40.232;29.132;2023-06-22T11:48:57;31.90;45.10
8945;DHT22;4507;40.232;29.132;2023-06-22T11:51:28;31.90;44.80
8945;DHT22;4507;40.232;29.132;2023-06-22T11:53:59;32.00;44.90
8945;DHT22;4507;40.232;29.132;2023-06-22T11:56:34;32.00;45.30
8945;DHT22;4507;40.232;29.132;2023-06-22T11:59:03;32.10;45.60
8945;DHT22;4507;40.232;29.132;2023-06-22T12:01:34;32.10;45.90
8945;DHT22;4507;40.232;29.132;2023-06-22T12:04:05;32.20;44.70
8945;DHT22;4507;40.232;29.132;2023-06-22T12:06:38;32.30;44.20
8945;DHT22;4507;40.232;29.132;2023-06-22T12:09:10;32.30;44.20
8945;DHT22;4507;40.232;29.132;2023-06-22T12:11:43;32.40;44.30
8945;DHT22;4507;40.232;29.132;2023-06-22T12:14:14;32.40;44.20
8945;DHT22;4507;40.232;29.132;2023-06-22T12:16:44;32.50;43.40
8945;DHT22;4507;40.232;29.132;2023-06-22T12:19:16;32.60;43.30
8945;DHT22;4507;40.232;29.132;2023-06-22T12:21:51;32.60;43.30
8945;DHT22;4507;40.232;29.132;2023-06-22T12:24:20;32.60;43.60
8945;DHT22;4507;40.232;29.132;2023-06-22T12:26:56;32.60;43.60
8945;DHT22;4507;40.232;29.132;2023-06-22T12:29:26;32.60;44.00
8945;DHT22;4507;40.232;29.132;2023-06-22T12:31:55;32.60;43.30
8945;DHT22;4507;40.232;29.132;2023-06-22T12:34:24;32.50;43.00
8945;DHT22;4507;40.232;29.132;2023-06-22T12:36:53;32.40;42.90
8945;DHT22;4507;40.232;29.132;2023-06-22T12:39:25;32.40;43.40
8945;DHT22;4507;40.232;29.132;2023-06-22T12:42:00;32.30;43.10
8945;DHT22;4507;40.232;29.132;2023-06-22T12:44:30;32.30;43.30
8945;DHT22;4507;40.232;29.132;2023-06-22T12:47:01;32.30;43.40
8945;DHT22;4507;40.232;29.132;2023-06-22T12:49:30;32.20;44.10
8945;DHT22;4507;40.232;29.132;2023-06-22T12:51:59;32.20;44.00
8945;DHT22;4507;40.232;29.132;2023-06-22T12:54:32;32.20;44.30
8945;DHT22;4507;40.232;29.132;2023-06-22T12:57:21;32.10;43.70
8945;DHT22;4507;40.232;29.132;2023-06-22T12:59:55;32.10;44.10
8945;DHT22;4507;40.232;29.132;2023-06-22T13:02:29;32.10;44.20
8945;DHT22;4507;40.232;29.132;2023-06-22T13:05:03;32.00;44.10
8945;DHT22;4507;40.232;29.132;2023-06-22T13:07:34;32.00;44.30
8945;DHT22;4507;40.232;29.132;2023-06-22T13:10:04;32.00;43.70
8945;DHT22;4507;40.232;29.132;2023-06-22T13:12:35;32.00;44.00
8945;DHT22;4507;40.232;29.132;2023-06-22T13:15:05;31.90;43.90
8945;DHT22;4507;40.232;29.132;2023-06-22T13:17:35;31.90;43.60
8945;DHT22;4507;40.232;29.132;2023-06-22T13:20:05;31.90;43.90
8945;DHT22;4507;40.232;29.132;2023-06-22T13:22:34;31.80;44.70
8945;DHT22;4507;40.232;29.132;2023-06-22T13:25:08;31.80;45.30
8945;DHT22;4507;40.232;29.132;2023-06-22T13:27:42;31.70;45.40
8945;DHT22;4507;40.232;29.132;2023-06-22T13:30:12;31.70;45.50
8945;DHT22;4507;40.232;29.132;2023-06-22T13:32:42;31.70;45.40
8945;DHT22;4507;40.232;29.132;2023-06-22T13:35:11;31.60;45.00
8945;DHT22;4507;40.232;29.132;2023-06-22T13:37:41;31.50;45.20
8945;DHT22;4507;40.232;29.132;2023-06-22T13:40:11;31.50;45.10
8945;DHT22;4507;40.232;29.132;2023-06-22T13:42:41;31.50;45.30
8945;DHT22;4507;40.232;29.132;2023-06-22T13:45:10;31.50;45.40
8945;DHT22;4507;40.232;29.132;2023-06-22T13:47:39;31.50;45.40
8945;DHT22;4507;40.232;29.132;2023-06-22T13:50:09;31.40;45.30
8945;DHT22;4507;40.232;29.132;2023-06-22T13:52:40;31.40;46.00
8945;DHT22;4507;40.232;29.132;2023-06-22T13:55:09;31.40;46.40
8945;DHT22;4507;40.232;29.132;2023-06-22T13:57:38;31.30;46.40
8945;DHT22;4507;40.232;29.132;2023-06-22T14:00:09;31.30;46.20
8945;DHT22;4507;40.232;29.132;2023-06-22T14:02:40;31.30;46.00
8945;DHT22;4507;40.232;29.132;2023-06-22T14:05:09;31.30;45.50
8945;DHT22;4507;40.232;29.132;2023-06-22T14:07:39;31.30;45.40
8945;DHT22;4507;40.232;29.132;2023-06-22T14:10:09;31.30;45.80
8945;DHT22;4507;40.232;29.132;2023-06-22T14:12:38;31.30;46.00
8945;DHT22;4507;40.232;29.132;2023-06-22T14:15:08;31.20;46.20
8945;DHT22;4507;40.232;29.132;2023-06-22T14:17:56;31.20;46.50
8945;DHT22;4507;40.232;29.132;2023-06-22T14:20:25;31.20;47.20
8945;DHT22;4507;40.232;29.132;2023-06-22T14:22:55;31.20;47.10
8945;DHT22;4507;40.232;29.132;2023-06-22T14:25:23;31.30;46.70
8945;DHT22;4507;40.232;29.132;2023-06-22T14:27:52;31.20;46.70
8945;DHT22;4507;40.232;29.132;2023-06-22T14:30:23;31.20;47.20
8945;DHT22;4507;40.232;29.132;2023-06-22T14:32:52;31.20;47.70
8945;DHT22;4507;40.232;29.132;2023-06-22T14:35:21;31.20;47.30
8945;DHT22;4507;40.232;29.132;2023-06-22T14:37:51;31.20;46.90
8945;DHT22;4507;40.232;29.132;2023-06-22T14:40:20;31.20;46.90
8945;DHT22;4507;40.232;29.132;2023-06-22T14:42:52;31.10;47.20
8945;DHT22;4507;40.232;29.132;2023-06-22T14:45:25;31.10;47.90
8945;DHT22;4507;40.232;29.132;2023-06-22T14:48:13;31.10;47.70
8945;DHT22;4507;40.232;29.132;2023-06-22T14:50:42;31.00;48.10
8945;DHT22;4507;40.232;29.132;2023-06-22T14:53:10;31.00;48.00
8945;DHT22;4507;40.232;29.132;2023-06-22T14:55:39;30.90;48.40
8945;DHT22;4507;40.232;29.132;2023-06-22T14:58:10;30.90;48.30
8945;DHT22;4507;40.232;29.132;2023-06-22T15:00:41;30.90;47.50
8945;DHT22;4507;40.232;29.132;2023-06-22T15:03:10;30.80;47.60
8945;DHT22;4507;40.232;29.132;2023-06-22T15:05:46;30.80;48.00
8945;DHT22;4507;40.232;29.132;2023-06-22T15:08:15;30.80;47.10
8945;DHT22;4507;40.232;29.132;2023-06-22T15:10:44;30.70;47.80
8945;DHT22;4507;40.232;29.132;2023-06-22T15:13:13;30.60;48.50
8945;DHT22;4507;40.232;29.132;2023-06-22T15:15:43;30.60;48.70
8945;DHT22;4507;40.232;29.132;2023-06-22T15:18:13;30.60;49.20
8945;DHT22;4507;40.232;29.132;2023-06-22T15:20:42;30.60;49.20
8945;DHT22;4507;40.232;29.132;2023-06-22T15:23:13;30.50;50.10
8945;DHT22;4507;40.232;29.132;2023-06-22T15:25:41;30.50;50.40
8945;DHT22;4507;40.232;29.132;2023-06-22T15:28:12;30.50;51.00
8945;DHT22;4507;40.232;29.132;2023-06-22T15:30:42;30.50;51.30
8945;DHT22;4507;40.232;29.132;2023-06-22T15:33:15;30.50;51.40
8945;DHT22;4507;40.232;29.132;2023-06-22T15:35:44;30.50;51.40
8945;DHT22;4507;40.232;29.132;2023-06-22T15:38:13;30.40;51.50
8945;DHT22;4507;40.232;29.132;2023-06-22T15:40:42;30.40;51.80
8945;DHT22;4507;40.232;29.132;2023-06-22T15:43:11;30.30;52.10
8945;DHT22;4507;40.232;29.132;2023-06-22T15:45:43;30.30;52.50
8945;DHT22;4507;40.232;29.132;2023-06-22T15:48:12;30.30;52.60
8945;DHT22;4507;40.232;29.132;2023-06-22T15:50:41;30.30;53.00
8945;DHT22;4507;40.232;29.132;2023-06-22T15:53:09;30.20;53.30
8945;DHT22;4507;40.232;29.132;2023-06-22T15:55:38;30.20;53.60
8945;DHT22;4507;40.232;29.132;2023-06-22T15:58:07;30.10;54.10
8945;DHT22;4507;40.232;29.132;2023-06-22T16:00:37;30.10;54.40
8945;DHT22;4507;40.232;29.132;2023-06-22T16:03:07;30.00;54.50
8945;DHT22;4507;40.232;29.132;2023-06-22T16:05:37;30.00;54.80
8945;DHT22;4507;40.232;29.132;2023-06-22T16:08:09;29.90;55.00
8945;DHT22;4507;40.232;29.132;2023-06-22T16:10:40;29.90;55.60